createdAt,value
2023-02-27T00:01:34.491Z,56.04
2023-02-27T00:06:28.408Z,56.44
2023-02-27T00:11:21.495Z,56.27
2023-02-27T00:16:15.878Z,56.21
2023-02-27T00:21:09.784Z,56.31
2023-02-27T00:26:03.672Z,56.34
2023-02-27T00:30:55.887Z,56.40
2023-02-27T00:35:59.912Z,56.40
2023-02-27T00:40:52.782Z,56.45
2023-02-27T00:45:45.866Z,56.14
2023-02-27T00:50:39.779Z,56.38
2023-02-27T00:55:31.986Z,56.19
2023-02-27T01:00:24.810Z,56.12
2023-02-27T01:05:19.676Z,55.98
2023-02-27T01:10:13.007Z,55.91
2023-02-27T01:15:11.105Z,55.88
2023-02-27T01:20:04.137Z,55.75
2023-02-27T01:24:57.429Z,55.21
2023-02-27T01:29:50.931Z,55.14
2023-02-27T01:34:44.681Z,55.19
2023-02-27T01:39:37.700Z,55.12
2023-02-27T01:44:32.281Z,55.03
2023-02-27T01:49:34.552Z,55.05
2023-02-27T01:54:28.112Z,55.07
2023-02-27T01:59:21.463Z,55.15
2023-02-27T02:04:35.366Z,55.02
2023-02-27T02:09:29.635Z,54.78
2023-02-27T02:14:22.681Z,55.04
2023-02-27T02:19:33.300Z,54.91
2023-02-27T02:24:40.922Z,54.80
2023-02-27T02:29:56.469Z,54.68
2023-02-27T02:35:07.286Z,54.61
2023-02-27T02:40:17.118Z,54.73
2023-02-27T02:45:12.126Z,54.54
2023-02-27T02:50:11.833Z,54.72
2023-02-27T02:55:16.085Z,54.73
2023-02-27T03:00:14.181Z,54.72
2023-02-27T03:05:16.206Z,54.50
2023-02-27T03:10:14.571Z,54.58
2023-02-27T03:15:21.882Z,54.48
2023-02-27T03:20:30.411Z,54.64
2023-02-27T03:25:33.837Z,54.63
2023-02-27T03:30:45.700Z,54.74
2023-02-27T03:36:04.134Z,54.74
2023-02-27T03:41:23.037Z,54.91
2023-02-27T03:46:27.384Z,54.69
2023-02-27T03:51:23.327Z,54.90
2023-02-27T03:56:19.146Z,54.91
2023-02-27T04:01:11.976Z,54.97
2023-02-27T04:06:25.485Z,55.01
2023-02-27T04:11:34.865Z,54.66
2023-02-27T04:16:51.023Z,54.71
2023-02-27T04:22:17.368Z,54.81
2023-02-27T04:27:37.237Z,54.83
2023-02-27T04:32:45.505Z,54.51
2023-02-27T04:37:50.728Z,54.56
2023-02-27T04:42:49.350Z,54.44
2023-02-27T04:47:52.421Z,54.17
2023-02-27T04:53:07.919Z,54.21
2023-02-27T04:58:06.678Z,54.12
2023-02-27T05:03:15.884Z,54.10
2023-02-27T05:08:27.034Z,54.03
2023-02-27T05:13:34.065Z,53.96
2023-02-27T05:18:27.853Z,53.88
2023-02-27T05:23:42.538Z,53.81
2023-02-27T05:28:43.045Z,53.57
2023-02-27T05:34:19.456Z,53.63
2023-02-27T05:39:14.245Z,53.47
2023-02-27T05:44:09.426Z,53.18
2023-02-27T05:49:06.950Z,53.28
2023-02-27T05:54:32.341Z,53.02
2023-02-27T05:59:31.063Z,53.17
2023-02-27T06:04:24.344Z,52.74
2023-02-27T06:09:17.287Z,52.99
2023-02-27T06:14:10.564Z,52.68
2023-02-27T06:19:04.989Z,47.75
2023-02-27T06:23:57.818Z,51.38
2023-02-27T06:28:51.120Z,51.03
2023-02-27T06:33:44.708Z,51.03
2023-02-27T06:38:39.109Z,51.06
2023-02-27T06:43:35.059Z,51.00
2023-02-27T06:48:27.218Z,51.24
2023-02-27T06:53:22.073Z,51.45
2023-02-27T06:58:15.572Z,51.45
2023-02-27T07:03:08.248Z,51.61
2023-02-27T07:08:01.722Z,51.82
2023-02-27T07:12:54.217Z,52.34
2023-02-27T07:17:46.649Z,52.25
2023-02-27T07:22:41.367Z,52.18
2023-02-27T07:27:34.824Z,52.34
2023-02-27T07:32:28.274Z,52.42
2023-02-27T07:37:21.620Z,52.36
2023-02-27T07:42:14.016Z,52.30
2023-02-27T07:47:06.613Z,52.41
2023-02-27T07:51:58.997Z,52.42
2023-02-27T07:56:51.858Z,52.35
2023-02-27T08:01:45.205Z,52.42
2023-02-27T08:06:38.211Z,52.47
2023-02-27T08:11:30.709Z,52.42
2023-02-27T08:16:23.523Z,52.51
2023-02-27T08:21:15.925Z,52.29
2023-02-27T08:26:09.292Z,52.24
2023-02-27T08:31:02.666Z,52.35
2023-02-27T08:35:56.306Z,52.19
2023-02-27T08:40:53.675Z,52.30
2023-02-27T08:45:48.483Z,52.20
2023-02-27T08:50:41.400Z,52.19
2023-02-27T08:55:34.538Z,52.16
2023-02-27T09:00:27.729Z,51.89
2023-02-27T09:05:22.960Z,52.14
2023-02-27T09:10:15.719Z,52.31
2023-02-27T09:15:09.316Z,52.05
2023-02-27T09:20:03.411Z,52.16
2023-02-27T09:25:00.581Z,51.76
2023-02-27T09:29:55.937Z,51.89
2023-02-27T09:34:49.321Z,51.85
2023-02-27T09:39:46.008Z,51.69
2023-02-27T09:44:49.400Z,51.61
2023-02-27T09:50:00.962Z,51.45
2023-02-27T09:54:55.866Z,51.56
2023-02-27T09:59:55.398Z,51.54
2023-02-27T10:05:13.998Z,51.15
2023-02-27T10:10:43.881Z,50.83
2023-02-27T10:15:45.013Z,50.65
2023-02-27T10:20:41.841Z,50.68
2023-02-27T10:25:44.296Z,50.63
2023-02-27T10:30:37.853Z,50.46
2023-02-27T10:35:44.215Z,50.57
2023-02-27T10:40:39.850Z,50.47
2023-02-27T10:45:32.970Z,50.55
2023-02-27T10:50:29.753Z,50.61
2023-02-27T10:55:35.559Z,50.71
2023-02-27T11:00:41.629Z,50.80
2023-02-27T11:05:36.760Z,50.71
2023-02-27T11:10:29.817Z,50.74
2023-02-27T11:15:26.282Z,50.79
2023-02-27T11:20:30.668Z,51.18
2023-02-27T11:25:26.042Z,51.32
2023-02-27T11:30:23.108Z,51.21
2023-02-27T11:35:40.154Z,51.26
2023-02-27T11:40:53.720Z,51.30
2023-02-27T11:46:18.389Z,51.40
2023-02-27T11:51:07.606Z,51.18
2023-02-27T11:56:05.485Z,51.22
2023-02-27T12:01:07.336Z,51.40
2023-02-27T12:06:17.115Z,51.03
2023-02-27T12:11:19.107Z,51.30
2023-02-27T12:16:22.544Z,51.13
2023-02-27T12:21:41.031Z,51.00
2023-02-27T12:26:44.457Z,51.01
2023-02-27T12:31:36.669Z,51.09
2023-02-27T12:36:29.646Z,51.12
2023-02-27T12:41:44.905Z,51.06
2023-02-27T12:46:57.778Z,50.89
2023-02-27T12:52:13.262Z,50.96
2023-02-27T12:57:53.557Z,51.00
2023-02-27T13:03:04.295Z,50.84
2023-02-27T13:08:19.299Z,51.17
2023-02-27T13:13:38.617Z,50.87
2023-02-27T13:18:31.152Z,50.89
2023-02-27T13:23:27.322Z,51.02
2023-02-27T13:28:28.400Z,50.94
2023-02-27T13:33:51.496Z,50.91
2023-02-27T13:38:45.992Z,50.70
2023-02-27T13:43:51.386Z,51.23
2023-02-27T13:48:46.787Z,51.54
2023-02-27T13:53:39.255Z,51.51
2023-02-27T13:58:52.345Z,51.67
2023-02-27T14:03:56.742Z,51.51
2023-02-27T14:08:59.650Z,51.58
2023-02-27T14:14:00.315Z,51.53
2023-02-27T14:18:59.042Z,51.40
2023-02-27T14:23:54.885Z,51.42
2023-02-27T14:28:56.418Z,51.41
2023-02-27T14:33:55.902Z,51.42
2023-02-27T14:38:49.864Z,51.55
2023-02-27T14:43:55.914Z,51.47
2023-02-27T14:48:54.119Z,51.52
2023-02-27T14:53:59.769Z,51.62
2023-02-27T14:59:03.602Z,51.40
2023-02-27T15:04:00.707Z,51.65
2023-02-27T15:08:55.236Z,51.35
2023-02-27T15:13:51.349Z,51.66
2023-02-27T15:18:51.055Z,51.74
2023-02-27T15:23:45.923Z,51.61
2023-02-27T15:28:40.817Z,51.75
2023-02-27T15:33:34.389Z,51.71
2023-02-27T15:38:35.888Z,51.85
2023-02-27T15:43:30.841Z,51.66
2023-02-27T15:48:24.516Z,51.81
2023-02-27T15:53:25.911Z,51.87
2023-02-27T15:58:25.027Z,51.77
2023-02-27T16:03:23.431Z,51.62
2023-02-27T16:08:20.602Z,51.51
2023-02-27T16:13:21.546Z,51.66
2023-02-27T16:18:14.687Z,51.66
2023-02-27T16:23:07.882Z,51.53
2023-02-27T16:28:06.679Z,51.48
2023-02-27T16:33:02.795Z,51.38
2023-02-27T16:38:01.606Z,51.38
2023-02-27T16:42:55.028Z,51.44
2023-02-27T16:47:52.071Z,48.72
2023-02-27T16:52:45.679Z,49.35
2023-02-27T16:57:38.762Z,49.07
2023-02-27T17:02:31.784Z,48.53
2023-02-27T17:07:24.855Z,48.36
2023-02-27T17:12:18.482Z,46.71
2023-02-27T17:17:12.092Z,46.02
2023-02-27T17:22:05.496Z,46.60
2023-02-27T17:26:58.055Z,46.42
2023-02-27T17:31:51.964Z,45.58
2023-02-27T17:36:46.480Z,45.70
2023-02-27T17:41:39.853Z,45.75
2023-02-27T17:46:33.184Z,46.18
2023-02-27T17:51:28.544Z,45.12
2023-02-27T17:56:20.684Z,45.69
2023-02-27T18:01:23.002Z,45.76
2023-02-27T18:06:16.586Z,45.60
2023-02-27T18:11:15.660Z,45.74
2023-02-27T18:16:10.168Z,47.77
2023-02-27T18:21:06.255Z,49.13
2023-02-27T18:26:05.343Z,53.63
2023-02-27T18:30:58.308Z,56.01
2023-02-27T18:35:52.213Z,55.29
2023-02-27T18:40:45.238Z,53.94
2023-02-27T18:45:38.702Z,52.23
2023-02-27T18:50:33.040Z,51.42
2023-02-27T18:55:26.565Z,49.85
2023-02-27T19:00:21.678Z,49.47
2023-02-27T19:05:15.156Z,49.74
2023-02-27T19:10:08.445Z,49.29
2023-02-27T19:15:01.187Z,48.17
2023-02-27T19:19:53.931Z,43.45
2023-02-27T19:24:47.884Z,46.45
2023-02-27T19:29:40.351Z,46.54
2023-02-27T19:34:33.398Z,46.83
2023-02-27T19:39:26.476Z,47.44
2023-02-27T19:44:19.958Z,47.51
2023-02-27T19:49:13.147Z,48.46
2023-02-27T19:54:05.974Z,48.89
2023-02-27T19:59:01.244Z,49.58
2023-02-27T20:03:56.761Z,50.39
2023-02-27T20:08:50.923Z,51.06
2023-02-27T20:13:45.579Z,51.26
2023-02-27T20:18:41.741Z,52.05
2023-02-27T20:23:38.797Z,52.37
2023-02-27T20:28:32.851Z,52.73
2023-02-27T20:33:26.113Z,52.85
2023-02-27T20:38:20.215Z,53.26
2023-02-27T20:43:13.054Z,54.00
2023-02-27T20:48:07.763Z,54.22
2023-02-27T20:53:01.491Z,53.87
2023-02-27T20:57:55.012Z,53.81
2023-02-27T21:02:48.945Z,54.47
2023-02-27T21:07:43.017Z,53.70
2023-02-27T21:12:36.696Z,53.84
2023-02-27T21:17:29.955Z,54.42
2023-02-27T21:22:23.862Z,53.96
2023-02-27T21:27:19.791Z,54.13
2023-02-27T21:32:13.727Z,53.91
2023-02-27T21:37:07.957Z,53.90
2023-02-27T21:42:01.714Z,53.89
2023-02-27T21:46:55.921Z,54.04
2023-02-27T21:51:49.308Z,53.69
2023-02-27T21:56:42.597Z,53.88
2023-02-27T22:01:35.234Z,54.34
2023-02-27T22:06:29.449Z,54.05
2023-02-27T22:11:23.366Z,53.95
2023-02-27T22:16:15.918Z,54.25
2023-02-27T22:21:12.471Z,54.04
2023-02-27T22:26:10.037Z,54.23
2023-02-27T22:31:20.926Z,54.30
2023-02-27T22:36:17.051Z,54.53
2023-02-27T22:41:19.227Z,54.44
2023-02-27T22:46:15.092Z,54.56
2023-02-27T22:51:12.770Z,54.40
2023-02-27T22:56:09.287Z,54.89
2023-02-27T23:01:03.184Z,54.66
2023-02-27T23:05:57.428Z,54.72
2023-02-27T23:10:50.644Z,54.73
2023-02-27T23:15:43.538Z,54.62
2023-02-27T23:20:40.594Z,54.47
2023-02-27T23:25:34.863Z,54.65
2023-02-27T23:30:29.471Z,54.71
2023-02-27T23:35:24.102Z,54.67
2023-02-27T23:40:18.159Z,55.01
2023-02-27T23:45:32.828Z,54.67
2023-02-27T23:50:31.769Z,54.97
2023-02-27T23:55:25.541Z,55.08
